Time;durP1;ratioP1;P1;durP2;ratioP2;P2;SDS_P1;SDS_P2;PMS_P1;PMS_P2;Temp;Humidity;BMP_temperature;BMP_pressure;BME280_temperature;BME280_humidity;BME280_pressure;Samples;Min_cycle;Max_cycle;Signal;HPM_P1;HPM_P2
2022/10/08 00:02:06;;;;;;;11.82;5.78;;;;;;;;;;4917665;29;20048;-65
2022/10/08 00:04:32;;;;;;;11.25;6.20;;;;;;;;;;4916470;29;20048;-65
2022/10/08 00:06:59;;;;;;;9.77;5.97;;;;;;;;;;4917746;29;20486;-65
2022/10/08 00:09:25;;;;;;;6.90;5.78;;;;;;;;;;4917491;29;20040;-65
2022/10/08 00:11:52;;;;;;;12.23;6.35;;;;;;;;;;4917726;29;20166;-65
2022/10/08 00:14:19;;;;;;;9.13;6.13;;;;;;;;;;4916401;29;20040;-65
2022/10/08 00:16:46;;;;;;;10.40;6.43;;;;;;;;;;4916063;29;20517;-65
2022/10/08 00:19:13;;;;;;;11.38;6.07;;;;;;;;;;4917563;29;20099;-65
2022/10/08 00:21:42;;;;;;;8.57;6.20;;;;;;;;;;4917346;29;20044;-65
2022/10/08 00:24:11;;;;;;;8.15;6.80;;;;;;;;;;4916172;29;20078;-65
2022/10/08 00:26:37;;;;;;;14.98;6.70;;;;;;;;;;4917206;29;20044;-65
2022/10/08 00:29:10;;;;;;;10.32;7.20;;;;;;;;;;4916089;29;20139;-65
2022/10/08 00:31:39;;;;;;;11.02;6.57;;;;;;;;;;4917680;29;20063;-65
2022/10/08 00:34:07;;;;;;;10.95;5.63;;;;;;;;;;4917357;29;20048;-65
2022/10/08 00:36:35;;;;;;;11.52;6.70;;;;;;;;;;4917144;29;20051;-65
2022/10/08 00:39:04;;;;;;;11.85;6.63;;;;;;;;;;4917035;29;20048;-65
2022/10/08 00:41:32;;;;;;;12.13;6.72;;;;;;;;;;4916003;29;20059;-65
2022/10/08 00:44:02;;;;;;;9.32;6.97;;;;;;;;;;4916528;29;20044;-66
2022/10/08 00:46:34;;;;;;;10.10;6.45;;;;;;;;;;4917719;29;20040;-66
2022/10/08 00:49:01;;;;;;;9.93;6.22;;;;;;;;;;4917038;29;20052;-66
2022/10/08 00:51:29;;;;;;;9.80;5.47;;;;;;;;;;4917057;29;20056;-66
2022/10/08 00:53:55;;;;;;;10.25;6.32;;;;;;;;;;4917484;29;20048;-66
2022/10/08 00:56:22;;;;;;;10.48;6.30;;;;;;;;;;4900438;29;20394;-66
2022/10/08 00:58:49;;;;;;;9.65;5.78;;;;;;;;;;4915991;29;20041;-65
2022/10/08 01:01:15;;;;;;;11.10;5.85;;;;;;;;;;4918849;29;20481;-65
2022/10/08 01:03:42;;;;;;;9.43;6.53;;;;;;;;;;4920129;29;20107;-66
2022/10/08 01:06:14;;;;;;;11.20;6.90;;;;;;;;;;4919604;29;20048;-66
2022/10/08 01:08:43;;;;;;;12.00;6.20;;;;;;;;;;4920588;29;20047;-65
2022/10/08 01:11:25;;;;;;;13.85;7.60;;;;;;;;;;4919479;29;20052;-65
2022/10/08 01:13:56;;;;;;;11.02;6.85;;;;;;;;;;4920605;29;20048;-65
2022/10/08 01:16:30;;;;;;;9.73;6.25;;;;;;;;;;4920933;29;20127;-65
2022/10/08 01:18:57;;;;;;;;;;;;;;;;;;4920830;29;20663;-65
2022/10/08 01:21:33;;;;;;;10.80;7.10;;;;;;;;;;4903657;29;20387;-65
2022/10/08 01:24:09;;;;;;;16.02;8.15;;;;;;;;;;4919577;29;20469;-65
2022/10/08 01:26:47;;;;;;;9.57;6.38;;;;;;;;;;4920647;29;20122;-65
2022/10/08 01:29:18;;;;;;;11.90;7.00;;;;;;;;;;4919193;29;20048;-65
2022/10/08 01:31:47;;;;;;;9.45;6.85;;;;;;;;;;4920739;29;20048;-65
2022/10/08 01:34:32;;;;;;;11.23;7.00;;;;;;;;;;4919007;29;20088;-65
2022/10/08 01:37:00;;;;;;;10.90;7.03;;;;;;;;;;4920279;29;20048;-66
2022/10/08 01:39:30;;;;;;;14.70;7.40;;;;;;;;;;4921241;29;20040;-63
2022/10/08 01:41:58;;;;;;;9.52;7.40;;;;;;;;;;4920444;29;20041;-62
2022/10/08 01:44:37;;;;;;;10.70;6.63;;;;;;;;;;4919100;29;20071;-62
2022/10/08 01:47:05;;;;;;;10.45;7.55;;;;;;;;;;4920129;29;20044;-62
2022/10/08 01:49:35;;;;;;;11.57;8.00;;;;;;;;;;4919873;29;20485;-62
2022/10/08 01:52:07;;;;;;;13.90;7.20;;;;;;;;;;4920215;29;20051;-63
2022/10/08 01:54:34;;;;;;;10.40;7.93;;;;;;;;;;4918757;29;20056;-63
2022/10/08 01:57:01;;;;;;;10.93;7.03;;;;;;;;;;4918727;29;20099;-64
2022/10/08 01:59:31;;;;;;;12.25;8.00;;;;;;;;;;4919708;29;20413;-64
2022/10/08 02:01:58;;;;;;;19.50;11.43;;;;;;;;;;4919810;29;20073;-64
2022/10/08 02:04:32;;;;;;;16.40;9.65;;;;;;;;;;4919769;29;20099;-64
2022/10/08 02:07:18;;;;;;;13.43;7.57;;;;;;;;;;4919063;29;20052;-64
2022/10/08 02:09:46;;;;;;;8.32;6.90;;;;;;;;;;4919657;29;20088;-64
2022/10/08 02:12:13;;;;;;;10.25;6.72;;;;;;;;;;4918880;29;20415;-64
2022/10/08 02:14:42;;;;;;;12.43;7.32;;;;;;;;;;4918910;29;20080;-64
2022/10/08 02:17:27;;;;;;;10.73;7.70;;;;;;;;;;4919425;29;20072;-65
2022/10/08 02:19:56;;;;;;;10.48;7.00;;;;;;;;;;4918360;29;20055;-65
2022/10/08 02:22:26;;;;;;;11.35;7.15;;;;;;;;;;4919317;29;20051;-65
2022/10/08 02:24:59;;;;;;;16.35;8.38;;;;;;;;;;4919876;29;20044;-65
2022/10/08 02:27:29;;;;;;;15.55;8.02;;;;;;;;;;4918491;29;20552;-66
2022/10/08 02:30:00;;;;;;;11.07;7.75;;;;;;;;;;4918440;29;20063;-66
2022/10/08 02:32:30;;;;;;;13.18;7.63;;;;;;;;;;4919210;29;20512;-66
2022/10/08 02:35:01;;;;;;;12.80;7.57;;;;;;;;;;4918027;29;20062;-66
2022/10/08 02:37:30;;;;;;;13.65;7.75;;;;;;;;;;4919111;29;20044;-66
2022/10/08 02:40:00;;;;;;;14.25;8.68;;;;;;;;;;4919122;29;20489;-66
2022/10/08 02:42:27;;;;;;;12.98;7.90;;;;;;;;;;4902216;29;20044;-66
2022/10/08 02:45:09;;;;;;;13.30;7.82;;;;;;;;;;4918410;29;20489;-63
2022/10/08 02:47:37;;;;;;;16.08;8.02;;;;;;;;;;4918991;29;20100;-63
2022/10/08 02:50:06;;;;;;;9.60;7.07;;;;;;;;;;4917870;29;20040;-63
2022/10/08 02:52:35;;;;;;;11.43;7.05;;;;;;;;;;4919569;29;20499;-63
2022/10/08 02:55:05;;;;;;;16.60;7.43;;;;;;;;;;4902008;29;20421;-63
2022/10/08 02:57:38;;;;;;;11.13;7.07;;;;;;;;;;4918799;29;20568;-63
2022/10/08 03:00:05;;;;;;;10.20;6.73;;;;;;;;;;4917708;29;20454;-64
2022/10/08 03:02:50;;;;;;;14.05;7.40;;;;;;;;;;4918629;29;20044;-62
2022/10/08 03:05:18;;;;;;;10.05;7.13;;;;;;;;;;4917981;29;20040;-62
2022/10/08 03:07:45;;;;;;;11.95;6.97;;;;;;;;;;4901761;29;20048;-62
2022/10/08 03:10:12;;;;;;;11.30;7.03;;;;;;;;;;4918468;29;20059;-62
2022/10/08 03:12:38;;;;;;;11.70;7.18;;;;;;;;;;4901538;29;20048;-62
2022/10/08 03:15:05;;;;;;;10.32;7.15;;;;;;;;;;4917779;29;20040;-62
2022/10/08 03:17:34;;;;;;;12.45;7.00;;;;;;;;;;4917000;29;20044;-63
2022/10/08 03:20:02;;;;;;;9.63;6.93;;;;;;;;;;4901603;29;20048;-62
2022/10/08 03:22:29;;;;;;;10.48;7.80;;;;;;;;;;4918643;29;20489;-63
2022/10/08 03:24:55;;;;;;;9.00;7.20;;;;;;;;;;4917025;29;20048;-62
2022/10/08 03:27:22;;;;;;;10.68;7.18;;;;;;;;;;4918206;29;20040;-63
2022/10/08 03:29:48;;;;;;;10.00;7.05;;;;;;;;;;4917586;29;20474;-62
2022/10/08 03:32:15;;;;;;;11.25;7.28;;;;;;;;;;4918403;29;20044;-62
2022/10/08 03:34:41;;;;;;;12.13;6.82;;;;;;;;;;4917049;29;20048;-64
2022/10/08 03:37:08;;;;;;;12.93;7.47;;;;;;;;;;4918054;29;20366;-63
2022/10/08 03:39:34;;;;;;;9.98;6.95;;;;;;;;;;4916518;29;20048;-62
2022/10/08 03:42:00;;;;;;;17.50;9.55;;;;;;;;;;4916664;29;20527;-62
2022/10/08 03:44:27;;;;;;;16.00;8.02;;;;;;;;;;4918001;29;20386;-64
2022/10/08 03:46:53;;;;;;;9.35;6.65;;;;;;;;;;4917889;29;20043;-64
2022/10/08 03:49:20;;;;;;;11.05;7.43;;;;;;;;;;4916649;29;20051;-64
2022/10/08 03:51:46;;;;;;;12.60;6.90;;;;;;;;;;4917824;29;20043;-64
2022/10/08 03:54:12;;;;;;;14.10;7.03;;;;;;;;;;4917083;29;20500;-64
2022/10/08 03:56:39;;;;;;;9.50;7.05;;;;;;;;;;4916935;29;20103;-64
2022/10/08 03:59:05;;;;;;;14.25;7.32;;;;;;;;;;4917875;29;20095;-64
2022/10/08 04:01:32;;;;;;;13.18;8.02;;;;;;;;;;5284108;23;20396;-64
2022/10/08 04:03:58;;;;;;;10.13;6.70;;;;;;;;;;4916555;29;20087;-64
2022/10/08 04:06:25;;;;;;;7.95;6.85;;;;;;;;;;4900809;29;20048;-65
2022/10/08 04:08:52;;;;;;;10.55;6.43;;;;;;;;;;4900944;29;20056;-65
2022/10/08 04:11:19;;;;;;;12.20;7.53;;;;;;;;;;4916378;29;20107;-65
2022/10/08 04:13:45;;;;;;;12.05;5.88;;;;;;;;;;4917434;29;20055;-64
2022/10/08 04:16:13;;;;;;;9.40;7.10;;;;;;;;;;4917944;29;20456;-65
2022/10/08 04:18:39;;;;;;;16.67;7.82;;;;;;;;;;4916148;29;20048;-65
2022/10/08 04:21:07;;;;;;;11.73;7.70;;;;;;;;;;4917437;29;20040;-65
2022/10/08 04:23:35;;;;;;;10.38;6.82;;;;;;;;;;4918068;29;20474;-65
2022/10/08 04:26:02;;;;;;;8.95;6.47;;;;;;;;;;4917579;29;20485;-65
2022/10/08 04:28:28;;;;;;;9.25;6.93;;;;;;;;;;4917359;29;20044;-65
2022/10/08 04:30:58;;;;;;;9.00;7.38;;;;;;;;;;4917382;29;20048;-64
2022/10/08 04:33:25;;;;;;;10.90;6.22;;;;;;;;;;4915914;29;20060;-65
2022/10/08 04:35:52;;;;;;;10.75;6.93;;;;;;;;;;4916707;29;20056;-64
2022/10/08 04:38:25;;;;;;;11.88;6.65;;;;;;;;;;4915694;29;20056;-65
2022/10/08 04:41:01;;;;;;;9.43;6.28;;;;;;;;;;4917120;29;20039;-64
2022/10/08 04:43:28;;;;;;;8.70;6.30;;;;;;;;;;4916845;29;20152;-64
2022/10/08 04:45:55;;;;;;;9.75;5.47;;;;;;;;;;4916943;29;20110;-64
2022/10/08 04:48:21;;;;;;;14.52;6.20;;;;;;;;;;4915650;29;20055;-64
2022/10/08 04:50:55;;;;;;;12.43;6.25;;;;;;;;;;4916883;29;20044;-65
2022/10/08 04:53:22;;;;;;;6.38;5.15;;;;;;;;;;4915570;29;20076;-64
2022/10/08 04:55:48;;;;;;;8.38;5.65;;;;;;;;;;4916799;29;20123;-65
2022/10/08 04:58:14;;;;;;;8.05;5.10;;;;;;;;;;4917077;29;20048;-65
2022/10/08 05:00:41;;;;;;;9.13;5.43;;;;;;;;;;4916823;29;20092;-65
2022/10/08 05:03:08;;;;;;;9.20;6.10;;;;;;;;;;4916836;29;20489;-65
2022/10/08 05:05:38;;;;;;;10.57;5.93;;;;;;;;;;4916652;29;20040;-64
2022/10/08 05:08:04;;;;;;;8.27;5.63;;;;;;;;;;4916924;29;20040;-64
2022/10/08 05:10:30;;;;;;;8.93;5.60;;;;;;;;;;4916773;29;20044;-64
2022/10/08 05:12:57;;;;;;;12.63;6.20;;;;;;;;;;4916992;29;20572;-65
2022/10/08 05:15:23;;;;;;;11.95;6.10;;;;;;;;;;4917132;29;20040;-65
2022/10/08 05:17:50;;;;;;;11.75;5.82;;;;;;;;;;4916620;29;20052;-65
2022/10/08 05:20:16;;;;;;;12.68;5.78;;;;;;;;;;4916528;29;20548;-64
2022/10/08 05:22:42;;;;;;;9.15;6.20;;;;;;;;;;4916779;29;20052;-63
2022/10/08 05:25:09;;;;;;;8.70;6.05;;;;;;;;;;4916542;29;20040;-63
2022/10/08 05:27:35;;;;;;;9.40;5.75;;;;;;;;;;4916621;29;20066;-63
2022/10/08 05:30:02;;;;;;;10.05;6.28;;;;;;;;;;4916554;29;20527;-64
2022/10/08 05:32:29;;;;;;;7.88;6.00;;;;;;;;;;4916135;29;20513;-64
2022/10/08 05:34:55;;;;;;;10.93;6.05;;;;;;;;;;4916214;29;20051;-64
2022/10/08 05:37:22;;;;;;;9.88;5.68;;;;;;;;;;4916209;29;20048;-64
2022/10/08 05:39:48;;;;;;;9.63;6.07;;;;;;;;;;4916009;29;20048;-64
2022/10/08 05:42:14;;;;;;;13.23;6.40;;;;;;;;;;4916221;29;20493;-64
2022/10/08 05:44:41;;;;;;;14.15;6.95;;;;;;;;;;4914946;29;20052;-64
2022/10/08 05:47:10;;;;;;;14.55;7.50;;;;;;;;;;4916320;29;20408;-64
2022/10/08 05:49:37;;;;;;;13.27;6.97;;;;;;;;;;4919639;29;20072;-64
2022/10/08 05:52:03;;;;;;;10.55;6.15;;;;;;;;;;4919519;29;20080;-64
2022/10/08 05:54:30;;;;;;;12.75;6.88;;;;;;;;;;4919858;29;20096;-64
2022/10/08 05:56:56;;;;;;;13.05;7.15;;;;;;;;;;4919908;29;20457;-64
2022/10/08 05:59:23;;;;;;;12.90;7.05;;;;;;;;;;4919699;29;20047;-65
2022/10/08 06:01:49;;;;;;;12.70;6.70;;;;;;;;;;4920102;29;20040;-66
2022/10/08 06:04:17;;;;;;;12.65;6.85;;;;;;;;;;4919914;29;20044;-66
2022/10/08 06:06:44;;;;;;;11.52;7.30;;;;;;;;;;4920287;29;20128;-64
2022/10/08 06:09:14;;;;;;;11.45;6.60;;;;;;;;;;4919673;29;20055;-66
2022/10/08 06:11:41;;;;;;;12.85;7.13;;;;;;;;;;4920086;29;20047;-64
2022/10/08 06:14:09;;;;;;;10.48;6.88;;;;;;;;;;4918324;29;20056;-63
2022/10/08 06:16:35;;;;;;;10.75;6.85;;;;;;;;;;4919803;29;20382;-64
2022/10/08 06:19:03;;;;;;;12.88;7.28;;;;;;;;;;4917787;29;20044;-62
2022/10/08 06:21:30;;;;;;;11.35;7.50;;;;;;;;;;4919614;29;20043;-63
2022/10/08 06:24:00;;;;;;;11.95;7.22;;;;;;;;;;4918130;29;20048;-62
2022/10/08 06:26:28;;;;;;;14.93;7.22;;;;;;;;;;4917860;29;20107;-62
2022/10/08 06:29:01;;;;;;;12.35;7.28;;;;;;;;;;4917888;29;20048;-62
2022/10/08 06:31:27;;;;;;;11.30;6.90;;;;;;;;;;4919549;29;20164;-63
2022/10/08 06:33:55;;;;;;;10.82;7.28;;;;;;;;;;4902110;29;20076;-63
2022/10/08 06:36:23;;;;;;;10.18;6.95;;;;;;;;;;4917669;29;20063;-65
2022/10/08 06:38:54;;;;;;;14.07;7.30;;;;;;;;;;4917720;29;20438;-65
2022/10/08 06:41:20;;;;;;;12.20;7.13;;;;;;;;;;4919309;29;20040;-64
2022/10/08 06:43:47;;;;;;;11.13;6.97;;;;;;;;;;4901954;29;20048;-63
2022/10/08 06:46:13;;;;;;;12.32;7.30;;;;;;;;;;4917939;29;20123;-63
2022/10/08 06:48:40;;;;;;;13.65;7.57;;;;;;;;;;4917403;29;20047;-64
2022/10/08 06:51:11;;;;;;;10.45;7.10;;;;;;;;;;4917447;29;20044;-64
2022/10/08 06:53:38;;;;;;;10.80;7.82;;;;;;;;;;4919197;29;20048;-64
2022/10/08 06:56:05;;;;;;;10.32;8.25;;;;;;;;;;4918922;29;20122;-64
2022/10/08 06:58:36;;;;;;;11.60;7.40;;;;;;;;;;4918293;29;20050;-64
2022/10/08 07:01:02;;;;;;;9.68;6.82;;;;;;;;;;4901599;29;20131;-64
2022/10/08 07:03:29;;;;;;;12.20;7.13;;;;;;;;;;4918289;29;20466;-64
2022/10/08 07:05:58;;;;;;;11.20;7.60;;;;;;;;;;4901600;29;20052;-64
2022/10/08 07:08:24;;;;;;;14.02;7.80;;;;;;;;;;4918942;29;20067;-64
2022/10/08 07:10:51;;;;;;;15.38;7.35;;;;;;;;;;4918288;29;20107;-66
2022/10/08 07:13:17;;;;;;;13.60;7.78;;;;;;;;;;4918144;29;20055;-65
2022/10/08 07:15:43;;;;;;;11.68;7.68;;;;;;;;;;4918160;29;20170;-66
2022/10/08 07:18:11;;;;;;;9.70;7.35;;;;;;;;;;4918508;29;20401;-66
2022/10/08 07:20:38;;;;;;;12.20;7.68;;;;;;;;;;4918300;29;20409;-66
2022/10/08 07:23:04;;;;;;;10.13;7.45;;;;;;;;;;4918210;29;20126;-65
2022/10/08 07:25:31;;;;;;;17.48;8.60;;;;;;;;;;4918032;29;20083;-66
2022/10/08 07:27:58;;;;;;;11.77;6.57;;;;;;;;;;4918255;29;20564;-66
2022/10/08 07:30:24;;;;;;;14.25;7.72;;;;;;;;;;4917260;29;20048;-66
2022/10/08 07:32:52;;;;;;;14.55;7.40;;;;;;;;;;4916679;29;20490;-65
2022/10/08 07:35:19;;;;;;;11.80;7.40;;;;;;;;;;4917268;29;20358;-64
2022/10/08 07:37:45;;;;;;;16.08;7.50;;;;;;;;;;4918217;29;20047;-63
2022/10/08 07:40:11;;;;;;;9.60;5.93;;;;;;;;;;4917356;29;20051;-65
2022/10/08 07:42:38;;;;;;;14.02;6.45;;;;;;;;;;4918243;29;20044;-64
2022/10/08 07:45:04;;;;;;;10.85;7.25;;;;;;;;;;4918145;29;20044;-64
2022/10/08 07:47:31;;;;;;;10.25;6.28;;;;;;;;;;4917898;29;20048;-65
2022/10/08 07:49:57;;;;;;;11.25;5.90;;;;;;;;;;4917847;29;20466;-64
2022/10/08 07:52:24;;;;;;;12.55;5.82;;;;;;;;;;4917696;29;20052;-64
2022/10/08 07:54:51;;;;;;;12.48;5.97;;;;;;;;;;4917821;29;20164;-64
2022/10/08 07:57:17;;;;;;;12.88;6.45;;;;;;;;;;4917716;29;20044;-65
2022/10/08 07:59:44;;;;;;;9.77;5.90;;;;;;;;;;4917523;29;20119;-65
2022/10/08 08:02:10;;;;;;;11.43;5.45;;;;;;;;;;4917610;29;20032;-64
2022/10/08 08:04:36;;;;;;;13.43;6.70;;;;;;;;;;4918123;29;20055;-64
2022/10/08 08:07:03;;;;;;;11.68;6.45;;;;;;;;;;4917551;29;20140;-65
2022/10/08 08:09:29;;;;;;;12.68;5.68;;;;;;;;;;4917530;29;20044;-65
2022/10/08 08:11:56;;;;;;;10.13;5.95;;;;;;;;;;4916771;29;20048;-64
2022/10/08 08:14:22;;;;;;;13.75;5.90;;;;;;;;;;4917795;29;20044;-64
2022/10/08 08:16:49;;;;;;;13.63;5.45;;;;;;;;;;4917596;29;20048;-64
2022/10/08 08:19:15;;;;;;;12.15;5.50;;;;;;;;;;4916194;29;20493;-65
2022/10/08 08:21:42;;;;;;;9.82;5.25;;;;;;;;;;4917355;29;20040;-65
2022/10/08 08:24:09;;;;;;;7.85;4.68;;;;;;;;;;4916003;29;20115;-65
2022/10/08 08:26:37;;;;;;;9.95;4.00;;;;;;;;;;4916087;29;20083;-65
2022/10/08 08:29:05;;;;;;;10.63;4.30;;;;;;;;;;4918032;29;20045;-65
2022/10/08 08:31:34;;;;;;;9.32;4.15;;;;;;;;;;4916262;29;20135;-65
2022/10/08 08:34:03;;;;;;;9.20;3.70;;;;;;;;;;4916019;29;20063;-65
2022/10/08 08:36:31;;;;;;;10.00;4.45;;;;;;;;;;4917126;29;20044;-64
2022/10/08 08:38:58;;;;;;;7.75;4.20;;;;;;;;;;4916271;29;20046;-64
2022/10/08 08:41:37;;;;;;;6.82;3.30;;;;;;;;;;4915912;29;20044;-65
2022/10/08 08:44:08;;;;;;;9.23;3.38;;;;;;;;;;4917127;29;20040;-65
2022/10/08 08:46:39;;;;;;;10.30;3.92;;;;;;;;;;4916986;29;20044;-65
2022/10/08 08:49:12;;;;;;;7.70;3.25;;;;;;;;;;4915956;29;20048;-64
2022/10/08 08:51:39;;;;;;;8.93;3.88;;;;;;;;;;4915737;29;20052;-64
2022/10/08 08:54:05;;;;;;;11.30;3.63;;;;;;;;;;4917879;29;20048;-64
2022/10/08 08:56:32;;;;;;;8.68;3.60;;;;;;;;;;4917174;29;20033;-64
2022/10/08 08:58:58;;;;;;;7.38;3.45;;;;;;;;;;4916439;29;20055;-66
2022/10/08 09:01:45;;;;;;;8.20;2.28;;;;;;;;;;4917348;29;20552;-66
2022/10/08 09:04:15;;;;;;;7.82;1.80;;;;;;;;;;4916120;29;20051;-67
2022/10/08 09:06:42;;;;;;;9.25;2.10;;;;;;;;;;4916356;29;20143;-67
2022/10/08 09:09:22;;;;;;;7.93;2.75;;;;;;;;;;4917703;29;20048;-66
2022/10/08 09:11:49;;;;;;;7.05;2.08;;;;;;;;;;4917570;29;20040;-67
2022/10/08 09:14:35;;;;;;;4.60;1.70;;;;;;;;;;4917048;29;20044;-67
2022/10/08 09:17:12;;;;;;;7.85;2.00;;;;;;;;;;4917314;29;20127;-67
2022/10/08 09:19:39;;;;;;;9.20;2.13;;;;;;;;;;4916652;29;20170;-64
2022/10/08 09:22:18;;;;;;;9.18;2.10;;;;;;;;;;4918892;29;20044;-66
2022/10/08 09:24:46;;;;;;;3.58;2.05;;;;;;;;;;4921671;29;20040;-66
2022/10/08 09:27:13;;;;;;;5.65;1.95;;;;;;;;;;4921331;29;20040;-67
2022/10/08 09:29:40;;;;;;;6.75;2.22;;;;;;;;;;4919844;29;20446;-66
2022/10/08 09:32:13;;;;;;;8.10;2.10;;;;;;;;;;4921634;29;20048;-66
2022/10/08 09:34:39;;;;;;;5.53;2.22;;;;;;;;;;4920638;29;20047;-66
2022/10/08 09:37:13;;;;;;;6.53;2.75;;;;;;;;;;4919268;29;20060;-66
2022/10/08 09:40:00;;;;;;;6.85;1.83;;;;;;;;;;4921080;29;20048;-66
2022/10/08 09:42:26;;;;;;;6.40;2.20;;;;;;;;;;4920116;29;20485;-65
2022/10/08 09:44:59;;;;;;;8.15;2.47;;;;;;;;;;4918960;29;20045;-66
2022/10/08 09:47:26;;;;;;;6.65;2.83;;;;;;;;;;4920506;29;20111;-66
2022/10/08 09:50:03;;;;;;;6.10;2.70;;;;;;;;;;4920453;29;20553;-67
2022/10/08 09:52:30;;;;;;;6.63;1.95;;;;;;;;;;4920150;29;20449;-68
2022/10/08 09:55:14;;;;;;;4.88;2.13;;;;;;;;;;4919942;29;20071;-67
2022/10/08 09:57:45;;;;;;;3.55;1.80;;;;;;;;;;4918696;29;20052;-67
2022/10/08 10:00:27;;;;;;;5.43;1.77;;;;;;;;;;4918528;29;20076;-67
2022/10/08 10:02:54;;;;;;;7.13;1.88;;;;;;;;;;4920163;29;20048;-67
2022/10/08 10:05:23;;;;;;;5.10;1.40;;;;;;;;;;4918599;29;20593;-67
2022/10/08 10:07:50;;;;;;;5.05;1.33;;;;;;;;;;4918452;29;20108;-66
2022/10/08 10:10:19;;;;;;;3.85;1.60;;;;;;;;;;4919639;29;20055;-66
2022/10/08 10:12:49;;;;;;;4.43;1.45;;;;;;;;;;4918313;29;20500;-66
2022/10/08 10:15:39;;;;;;;6.82;1.45;;;;;;;;;;4931757;23;20045;-65
2022/10/08 10:18:08;;;;;;;8.43;1.40;;;;;;;;;;4919552;29;20070;-66
2022/10/08 10:20:37;;;;;;;4.45;1.35;;;;;;;;;;4917842;29;20101;-64
2022/10/08 10:23:09;;;;;;;4.57;1.65;;;;;;;;;;4918334;29;20051;-65
2022/10/08 10:25:40;;;;;;;4.65;1.67;;;;;;;;;;4898790;29;20068;-65
2022/10/08 10:28:12;;;;;;;4.28;1.42;;;;;;;;;;4898612;29;20048;-65
2022/10/08 10:30:59;;;;;;;2.50;1.40;;;;;;;;;;4936758;29;20063;-64
2022/10/08 10:33:28;;;;;;;7.97;1.40;;;;;;;;;;4937392;29;20055;-64
2022/10/08 10:35:56;;;;;;;3.88;1.58;;;;;;;;;;4938267;29;20051;-63
2022/10/08 10:38:27;;;;;;;4.75;1.70;;;;;;;;;;4913188;29;20066;-65
2022/10/08 10:40:57;;;;;;;3.75;1.80;;;;;;;;;;4896588;29;20048;-65
2022/10/08 10:43:23;;;;;;;5.97;1.90;;;;;;;;;;4903241;29;20055;-67
2022/10/08 10:45:52;;;;;;;4.95;1.70;;;;;;;;;;4897091;29;20028;-65
2022/10/08 10:48:21;;;;;;;3.20;1.70;;;;;;;;;;4898138;29;20040;-65
2022/10/08 10:54:04;;;;;;;6.78;2.20;;;;;;;;;;4937826;29;20048;-61
2022/10/08 10:56:35;;;;;;;7.63;1.88;;;;;;;;;;4935934;29;20098;-60
2022/10/08 10:59:28;;;;;;;8.27;2.10;;;;;;;;;;4937260;29;20055;-62
2022/10/08 11:02:13;;;;;;;6.53;2.03;;;;;;;;;;4924438;29;20123;-61
2022/10/08 11:04:42;;;;;;;5.20;2.30;;;;;;;;;;4920309;29;20118;-60
2022/10/08 11:07:19;;;;;;;6.45;2.20;;;;;;;;;;4919976;29;20060;-60
2022/10/08 11:09:49;;;;;;;9.02;2.00;;;;;;;;;;4920630;29;20075;-60
2022/10/08 11:12:24;;;;;;;5.63;2.10;;;;;;;;;;4919041;29;20484;-60
2022/10/08 11:14:57;;;;;;;6.35;2.30;;;;;;;;;;4920744;29;20044;-59
2022/10/08 11:17:43;;;;;;;2.90;1.60;;;;;;;;;;4921280;29;20047;-61
2022/10/08 11:20:30;;;;;;;7.60;1.80;;;;;;;;;;4920857;29;20075;-60
2022/10/08 11:23:09;;;;;;;3.47;1.70;;;;;;;;;;4921010;29;20055;-60
2022/10/08 11:25:47;;;;;;;6.32;1.90;;;;;;;;;;4920345;29;20072;-60
2022/10/08 11:28:48;;;;;;;3.00;1.33;;;;;;;;;;4918940;29;20114;-60
2022/10/08 11:31:17;;;;;;;3.17;1.40;;;;;;;;;;4921857;29;20112;-61
2022/10/08 11:33:44;;;;;;;6.28;1.38;;;;;;;;;;4922997;29;20406;-59
2022/10/08 11:36:26;;;;;;;3.33;1.63;;;;;;;;;;4921941;29;20056;-58
2022/10/08 11:39:06;;;;;;;5.35;1.65;;;;;;;;;;4906679;29;20055;-61
2022/10/08 11:41:40;;;;;;;2.33;1.52;;;;;;;;;;4921170;29;20071;-60
2022/10/08 11:44:09;;;;;;;4.50;1.55;;;;;;;;;;4918413;29;20058;-61
2022/10/08 11:46:35;;;;;;;4.68;1.85;;;;;;;;;;4916946;29;20048;-60
2022/10/08 11:49:24;;;;;;;5.10;1.90;;;;;;;;;;4917138;29;20069;-59
2022/10/08 11:51:51;;;;;;;4.38;1.63;;;;;;;;;;4917375;29;20104;-58
2022/10/08 11:54:33;;;;;;;3.88;1.60;;;;;;;;;;4918344;29;20107;-58
2022/10/08 11:57:16;;;;;;;3.25;1.50;;;;;;;;;;4918395;29;20143;-59
2022/10/08 11:59:45;;;;;;;5.40;1.75;;;;;;;;;;4901040;29;20564;-59
2022/10/08 12:02:24;;;;;;;3.22;2.00;;;;;;;;;;4916794;29;20054;-59
2022/10/08 12:04:51;;;;;;;2.60;1.58;;;;;;;;;;4917591;29;20055;-58
2022/10/08 12:07:21;;;;;;;4.30;1.88;;;;;;;;;;4901617;29;20044;-58
2022/10/08 12:10:05;;;;;;;4.72;1.63;;;;;;;;;;4917196;29;20101;-60
2022/10/08 12:13:00;;;;;;;5.07;2.17;;;;;;;;;;4918189;29;20051;-60
2022/10/08 12:15:27;;;;;;;4.43;1.98;;;;;;;;;;4901873;29;20048;-58
2022/10/08 12:17:55;;;;;;;6.63;2.53;;;;;;;;;;4916784;29;20457;-58
2022/10/08 12:20:22;;;;;;;5.13;2.08;;;;;;;;;;4917779;29;20078;-57
2022/10/08 12:23:08;;;;;;;5.50;2.28;;;;;;;;;;4916796;29;20116;-63
2022/10/08 12:25:34;;;;;;;3.42;1.95;;;;;;;;;;4917647;29;20048;-62
2022/10/08 12:28:19;;;;;;;4.47;1.95;;;;;;;;;;4916392;29;20044;-63
2022/10/08 12:30:50;;;;;;;12.40;2.42;;;;;;;;;;4916730;29;20048;-62
2022/10/08 12:33:16;;;;;;;5.70;2.05;;;;;;;;;;4917515;29;20048;-63
2022/10/08 12:35:54;;;;;;;6.63;2.15;;;;;;;;;;4917123;29;20040;-62
2022/10/08 12:38:39;;;;;;;3.67;1.77;;;;;;;;;;4917146;29;20044;-63
2022/10/08 12:41:05;;;;;;;3.03;1.83;;;;;;;;;;4917638;29;20110;-62
2022/10/08 12:43:50;;;;;;;5.40;2.30;;;;;;;;;;4917187;29;20072;-63
2022/10/08 12:46:20;;;;;;;4.30;2.15;;;;;;;;;;4917430;29;20400;-62
2022/10/08 12:48:49;;;;;;;4.13;1.98;;;;;;;;;;4917136;29;20044;-62
2022/10/08 12:51:18;;;;;;;4.07;2.25;;;;;;;;;;4916893;29;20107;-61
2022/10/08 12:53:45;;;;;;;5.70;2.33;;;;;;;;;;4918047;29;20052;-63
2022/10/08 12:56:17;;;;;;;3.97;2.10;;;;;;;;;;4902209;29;20504;-62
2022/10/08 12:58:45;;;;;;;5.50;2.85;;;;;;;;;;4921745;29;20450;-62
2022/10/08 13:01:14;;;;;;;5.82;2.67;;;;;;;;;;4919891;29;20051;-62
2022/10/08 13:03:41;;;;;;;3.53;2.70;;;;;;;;;;4921239;29;20044;-62
2022/10/08 13:06:26;;;;;;;5.75;2.55;;;;;;;;;;4904366;29;20142;-61
2022/10/08 13:08:58;;;;;;;7.07;2.40;;;;;;;;;;4921235;29;20123;-62
2022/10/08 13:11:26;;;;;;;3.25;1.67;;;;;;;;;;4921372;29;20048;-59
2022/10/08 13:13:53;;;;;;;6.38;2.50;;;;;;;;;;4921240;29;20048;-62
2022/10/08 13:16:21;;;;;;;5.65;1.80;;;;;;;;;;4919712;29;20461;-62
2022/10/08 13:18:52;;;;;;;3.45;2.00;;;;;;;;;;4919525;29;20087;-63
2022/10/08 13:21:31;;;;;;;2.63;1.80;;;;;;;;;;4919319;29;20067;-60
2022/10/08 13:23:58;;;;;;;4.70;2.17;;;;;;;;;;4919632;29;20050;-58
2022/10/08 13:26:44;;;;;;;4.95;2.40;;;;;;;;;;4920344;29;20071;-59
2022/10/08 13:29:20;;;;;;;4.80;2.00;;;;;;;;;;4919266;29;20051;-59
2022/10/08 13:31:52;;;;;;;5.95;2.17;;;;;;;;;;4919322;29;20128;-59
2022/10/08 13:34:19;;;;;;;7.47;2.30;;;;;;;;;;4903569;29;20048;-60
2022/10/08 13:36:51;;;;;;;8.13;2.47;;;;;;;;;;4919350;29;20083;-59
2022/10/08 13:39:25;;;;;;;5.60;2.30;;;;;;;;;;4919388;29;20079;-59
2022/10/08 13:41:54;;;;;;;5.63;2.60;;;;;;;;;;4918934;29;20044;-60
2022/10/08 13:44:21;;;;;;;5.03;2.50;;;;;;;;;;4918899;29;20044;-59
2022/10/08 13:46:47;;;;;;;4.63;2.17;;;;;;;;;;4903746;29;20100;-60
2022/10/08 13:49:18;;;;;;;4.40;1.75;;;;;;;;;;4918807;29;20040;-58
2022/10/08 13:51:44;;;;;;;7.63;1.92;;;;;;;;;;4920424;29;20493;-60
2022/10/08 13:54:11;;;;;;;5.50;2.10;;;;;;;;;;5278326;23;20508;-58
2022/10/08 13:56:37;;;;;;;5.70;1.65;;;;;;;;;;4924934;29;20104;-59
2022/10/08 13:59:04;;;;;;;4.07;1.50;;;;;;;;;;4919040;29;20060;-58
2022/10/08 14:01:30;;;;;;;5.40;2.13;;;;;;;;;;4917149;29;20045;-58
2022/10/08 14:04:07;;;;;;;5.55;1.60;;;;;;;;;;4138082;29;10001436;-58
2022/10/08 14:06:34;;;;;;;6.03;2.47;;;;;;;;;;4047817;29;10000974;-60
2022/10/08 14:09:02;;;;;;;4.00;2.03;;;;;;;;;;4908361;23;20055;-63
2022/10/08 14:11:29;;;;;;;3.72;1.85;;;;;;;;;;4898099;29;20250;-64
2022/10/08 14:13:55;;;;;;;3.88;1.92;;;;;;;;;;4898350;29;20052;-64
2022/10/08 14:16:22;;;;;;;5.90;2.38;;;;;;;;;;4898702;29;20053;-65
2022/10/08 14:18:49;;;;;;;3.53;2.05;;;;;;;;;;4898741;29;20127;-65
2022/10/08 14:21:15;;;;;;;5.53;2.22;;;;;;;;;;4899143;29;20501;-65
2022/10/08 14:23:42;;;;;;;3.53;1.80;;;;;;;;;;4899179;29;20494;-64
2022/10/08 14:26:10;;;;;;;4.45;1.95;;;;;;;;;;4899101;29;20037;-65
2022/10/08 14:28:36;;;;;;;4.70;1.60;;;;;;;;;;4898694;29;20081;-65
2022/10/08 14:31:04;;;;;;;3.42;1.83;;;;;;;;;;4882813;29;20052;-65
2022/10/08 14:33:30;;;;;;;3.42;1.83;;;;;;;;;;4899551;29;20052;-64
2022/10/08 14:35:57;;;;;;;8.32;2.70;;;;;;;;;;4882633;29;20048;-66
2022/10/08 14:38:23;;;;;;;5.55;2.15;;;;;;;;;;4898037;29;20088;-64
2022/10/08 14:40:50;;;;;;;4.63;2.35;;;;;;;;;;4882426;29;20139;-64
2022/10/08 14:43:16;;;;;;;4.07;2.00;;;;;;;;;;4897903;29;20078;-63
2022/10/08 14:45:42;;;;;;;4.25;2.17;;;;;;;;;;4899003;29;20045;-64
2022/10/08 14:48:09;;;;;;;3.53;2.22;;;;;;;;;;4898927;29;20501;-65
2022/10/08 14:50:35;;;;;;;3.50;2.00;;;;;;;;;;4897450;29;20852;-64
2022/10/08 14:53:02;;;;;;;5.05;2.35;;;;;;;;;;4898830;29;20079;-64
2022/10/08 14:55:28;;;;;;;5.55;3.25;;;;;;;;;;4897567;29;20112;-64
2022/10/08 14:57:55;;;;;;;7.22;2.55;;;;;;;;;;4913177;29;20045;-64